sensor_id;sensor_type;location;lat;lon;timestamp;temperature;humidity
1179;DHT22;578;48.408;10.004;2023-09-30T00:01:30;13.60;99.90
1179;DHT22;578;48.408;10.004;2023-09-30T00:03:32;13.50;99.90
1179;DHT22;578;48.408;10.004;2023-09-30T00:05:34;13.50;99.90
1179;DHT22;578;48.408;10.004;2023-09-30T00:07:36;13.50;99.90
1179;DHT22;578;48.408;10.004;2023-09-30T00:09:38;13.50;99.90
1179;DHT22;578;48.408;10.004;2023-09-30T00:11:38;13.50;99.90
1179;DHT22;578;48.408;10.004;2023-09-30T00:13:40;13.50;99.90
1179;DHT22;578;48.408;10.004;2023-09-30T00:15:42;13.50;99.90
1179;DHT22;578;48.408;10.004;2023-09-30T00:17:45;13.60;99.90
1179;DHT22;578;48.408;10.004;2023-09-30T00:19:47;13.50;99.90
1179;DHT22;578;48.408;10.004;2023-09-30T00:21:48;13.50;99.90
1179;DHT22;578;48.408;10.004;2023-09-30T00:23:50;13.40;99.90
1179;DHT22;578;48.408;10.004;2023-09-30T00:25:52;13.40;99.90
1179;DHT22;578;48.408;10.004;2023-09-30T00:27:53;13.40;99.90
1179;DHT22;578;48.408;10.004;2023-09-30T00:29:55;13.30;99.90
1179;DHT22;578;48.408;10.004;2023-09-30T00:31:57;13.30;99.90
1179;DHT22;578;48.408;10.004;2023-09-30T00:34:00;13.30;99.90
1179;DHT22;578;48.408;10.004;2023-09-30T00:36:06;13.30;99.90
1179;DHT22;578;48.408;10.004;2023-09-30T00:38:08;13.20;99.90
1179;DHT22;578;48.408;10.004;2023-09-30T00:40:12;13.20;99.90
1179;DHT22;578;48.408;10.004;2023-09-30T00:42:14;13.20;99.90
1179;DHT22;578;48.408;10.004;2023-09-30T00:44:16;13.20;99.90
1179;DHT22;578;48.408;10.004;2023-09-30T00:46:25;13.20;99.90
1179;DHT22;578;48.408;10.004;2023-09-30T00:48:27;13.20;99.90
1179;DHT22;578;48.408;10.004;2023-09-30T00:50:30;13.20;99.90
1179;DHT22;578;48.408;10.004;2023-09-30T00:52:35;13.20;99.90
1179;DHT22;578;48.408;10.004;2023-09-30T00:54:37;13.20;99.90
1179;DHT22;578;48.408;10.004;2023-09-30T00:56:45;13.10;99.90
1179;DHT22;578;48.408;10.004;2023-09-30T00:58:48;13.10;99.90
1179;DHT22;578;48.408;10.004;2023-09-30T01:00:52;13.10;99.90
1179;DHT22;578;48.408;10.004;2023-09-30T01:02:54;13.00;99.90
1179;DHT22;578;48.408;10.004;2023-09-30T01:04:57;13.00;99.90
1179;DHT22;578;48.408;10.004;2023-09-30T01:07:01;13.00;99.90
1179;DHT22;578;48.408;10.004;2023-09-30T01:09:03;13.00;99.90
1179;DHT22;578;48.408;10.004;2023-09-30T01:11:04;13.00;99.90
1179;DHT22;578;48.408;10.004;2023-09-30T01:13:07;13.00;99.90
1179;DHT22;578;48.408;10.004;2023-09-30T01:15:09;13.10;99.90
1179;DHT22;578;48.408;10.004;2023-09-30T01:17:10;13.00;99.90
1179;DHT22;578;48.408;10.004;2023-09-30T01:19:14;13.10;99.90
1179;DHT22;578;48.408;10.004;2023-09-30T01:21:16;13.00;99.90
1179;DHT22;578;48.408;10.004;2023-09-30T01:23:20;13.00;99.90
1179;DHT22;578;48.408;10.004;2023-09-30T01:25:21;13.00;99.90
1179;DHT22;578;48.408;10.004;2023-09-30T01:27:23;13.10;99.90
1179;DHT22;578;48.408;10.004;2023-09-30T01:29:27;13.10;99.90
1179;DHT22;578;48.408;10.004;2023-09-30T01:31:29;13.00;99.90
1179;DHT22;578;48.408;10.004;2023-09-30T01:33:31;13.00;99.90
1179;DHT22;578;48.408;10.004;2023-09-30T01:35:34;13.00;99.90
1179;DHT22;578;48.408;10.004;2023-09-30T01:37:36;13.00;99.90
1179;DHT22;578;48.408;10.004;2023-09-30T01:39:39;13.00;99.90
1179;DHT22;578;48.408;10.004;2023-09-30T01:41:41;13.00;99.90
1179;DHT22;578;48.408;10.004;2023-09-30T01:43:43;13.10;99.90
1179;DHT22;578;48.408;10.004;2023-09-30T01:45:45;13.00;99.90
1179;DHT22;578;48.408;10.004;2023-09-30T01:47:46;13.10;99.90
1179;DHT22;578;48.408;10.004;2023-09-30T01:49:48;13.00;99.90
1179;DHT22;578;48.408;10.004;2023-09-30T01:51:50;13.00;99.90
1179;DHT22;578;48.408;10.004;2023-09-30T01:53:52;12.90;99.90
1179;DHT22;578;48.408;10.004;2023-09-30T01:55:54;12.80;99.90
1179;DHT22;578;48.408;10.004;2023-09-30T01:57:56;12.80;99.90
1179;DHT22;578;48.408;10.004;2023-09-30T01:59:58;12.70;99.90
1179;DHT22;578;48.408;10.004;2023-09-30T02:02:00;12.70;99.90
1179;DHT22;578;48.408;10.004;2023-09-30T02:04:03;12.60;99.90
1179;DHT22;578;48.408;10.004;2023-09-30T02:06:06;12.60;99.90
1179;DHT22;578;48.408;10.004;2023-09-30T02:08:07;12.50;99.90
1179;DHT22;578;48.408;10.004;2023-09-30T02:10:09;12.50;99.90
1179;DHT22;578;48.408;10.004;2023-09-30T02:12:13;12.50;99.90
1179;DHT22;578;48.408;10.004;2023-09-30T02:14:15;12.50;99.90
1179;DHT22;578;48.408;10.004;2023-09-30T02:16:17;12.50;99.90
1179;DHT22;578;48.408;10.004;2023-09-30T02:18:19;12.40;99.90
1179;DHT22;578;48.408;10.004;2023-09-30T02:20:21;12.30;99.90
1179;DHT22;578;48.408;10.004;2023-09-30T02:22:26;12.30;99.90
1179;DHT22;578;48.408;10.004;2023-09-30T02:24:28;12.30;99.90
1179;DHT22;578;48.408;10.004;2023-09-30T02:26:30;12.30;99.90
1179;DHT22;578;48.408;10.004;2023-09-30T02:28:34;12.30;99.90
1179;DHT22;578;48.408;10.004;2023-09-30T02:30:37;12.20;99.90
1179;DHT22;578;48.408;10.004;2023-09-30T02:32:39;12.20;99.90
1179;DHT22;578;48.408;10.004;2023-09-30T02:34:41;12.20;99.90
1179;DHT22;578;48.408;10.004;2023-09-30T02:36:45;12.20;99.90
1179;DHT22;578;48.408;10.004;2023-09-30T02:38:46;12.10;99.90
1179;DHT22;578;48.408;10.004;2023-09-30T02:40:49;12.10;99.90
1179;DHT22;578;48.408;10.004;2023-09-30T02:42:52;12.10;99.90
1179;DHT22;578;48.408;10.004;2023-09-30T02:44:54;12.10;99.90
1179;DHT22;578;48.408;10.004;2023-09-30T02:46:55;12.10;99.90
1179;DHT22;578;48.408;10.004;2023-09-30T02:48:57;12.10;99.90
1179;DHT22;578;48.408;10.004;2023-09-30T02:50:59;12.10;99.90
1179;DHT22;578;48.408;10.004;2023-09-30T02:53:02;12.10;99.90
1179;DHT22;578;48.408;10.004;2023-09-30T02:55:06;12.10;99.90
1179;DHT22;578;48.408;10.004;2023-09-30T02:57:08;12.10;99.90
1179;DHT22;578;48.408;10.004;2023-09-30T02:59:11;12.10;99.90
1179;DHT22;578;48.408;10.004;2023-09-30T03:01:15;12.10;99.90
1179;DHT22;578;48.408;10.004;2023-09-30T03:03:18;12.10;99.90
1179;DHT22;578;48.408;10.004;2023-09-30T03:05:21;12.00;99.90
1179;DHT22;578;48.408;10.004;2023-09-30T03:07:22;11.90;99.90
1179;DHT22;578;48.408;10.004;2023-09-30T03:09:24;11.90;99.90
1179;DHT22;578;48.408;10.004;2023-09-30T03:11:24;11.90;99.90
1179;DHT22;578;48.408;10.004;2023-09-30T03:13:26;11.90;99.90
1179;DHT22;578;48.408;10.004;2023-09-30T03:15:28;11.90;99.90
1179;DHT22;578;48.408;10.004;2023-09-30T03:17:32;11.90;99.90
1179;DHT22;578;48.408;10.004;2023-09-30T03:19:34;11.90;99.90
1179;DHT22;578;48.408;10.004;2023-09-30T03:21:36;11.90;99.90
1179;DHT22;578;48.408;10.004;2023-09-30T03:23:38;11.90;99.90
1179;DHT22;578;48.408;10.004;2023-09-30T03:25:40;12.00;99.90
1179;DHT22;578;48.408;10.004;2023-09-30T03:27:42;12.00;99.90
1179;DHT22;578;48.408;10.004;2023-09-30T03:29:44;12.10;99.90
1179;DHT22;578;48.408;10.004;2023-09-30T03:31:45;12.10;99.90
1179;DHT22;578;48.408;10.004;2023-09-30T03:33:49;12.10;99.90
1179;DHT22;578;48.408;10.004;2023-09-30T03:35:51;12.10;99.90
1179;DHT22;578;48.408;10.004;2023-09-30T03:37:53;12.20;99.90
1179;DHT22;578;48.408;10.004;2023-09-30T03:39:55;12.20;99.90
1179;DHT22;578;48.408;10.004;2023-09-30T03:41:57;12.10;99.90
1179;DHT22;578;48.408;10.004;2023-09-30T03:43:59;12.20;99.90
1179;DHT22;578;48.408;10.004;2023-09-30T03:46:02;12.10;99.90
1179;DHT22;578;48.408;10.004;2023-09-30T03:48:04;12.10;99.90
1179;DHT22;578;48.408;10.004;2023-09-30T03:50:08;12.10;99.90
1179;DHT22;578;48.408;10.004;2023-09-30T03:52:14;12.10;99.90
1179;DHT22;578;48.408;10.004;2023-09-30T03:54:17;12.10;99.90
1179;DHT22;578;48.408;10.004;2023-09-30T03:56:18;12.10;99.90
1179;DHT22;578;48.408;10.004;2023-09-30T03:58:21;12.20;99.90
1179;DHT22;578;48.408;10.004;2023-09-30T04:00:24;12.20;99.90
1179;DHT22;578;48.408;10.004;2023-09-30T04:02:26;12.20;99.90
1179;DHT22;578;48.408;10.004;2023-09-30T04:04:26;12.20;99.90
1179;DHT22;578;48.408;10.004;2023-09-30T04:06:30;12.20;99.90
1179;DHT22;578;48.408;10.004;2023-09-30T04:08:31;12.20;99.90
1179;DHT22;578;48.408;10.004;2023-09-30T04:10:33;12.20;99.90
1179;DHT22;578;48.408;10.004;2023-09-30T04:12:35;12.20;99.90
1179;DHT22;578;48.408;10.004;2023-09-30T04:14:36;12.10;99.90
1179;DHT22;578;48.408;10.004;2023-09-30T04:16:38;12.10;99.90
1179;DHT22;578;48.408;10.004;2023-09-30T04:18:39;12.10;99.90
1179;DHT22;578;48.408;10.004;2023-09-30T04:20:41;12.10;99.90
1179;DHT22;578;48.408;10.004;2023-09-30T04:22:47;12.00;99.90
1179;DHT22;578;48.408;10.004;2023-09-30T04:24:49;12.00;99.90
1179;DHT22;578;48.408;10.004;2023-09-30T04:26:50;11.90;99.90
1179;DHT22;578;48.408;10.004;2023-09-30T04:28:57;11.90;99.90
1179;DHT22;578;48.408;10.004;2023-09-30T04:30:59;11.80;99.90
1179;DHT22;578;48.408;10.004;2023-09-30T04:33:03;11.80;99.90
1179;DHT22;578;48.408;10.004;2023-09-30T04:35:08;11.80;99.90
1179;DHT22;578;48.408;10.004;2023-09-30T04:37:10;11.70;99.90
1179;DHT22;578;48.408;10.004;2023-09-30T04:39:13;11.60;99.90
1179;DHT22;578;48.408;10.004;2023-09-30T04:41:16;11.60;99.90
1179;DHT22;578;48.408;10.004;2023-09-30T04:43:19;11.60;99.90
1179;DHT22;578;48.408;10.004;2023-09-30T04:45:22;11.60;99.90
1179;DHT22;578;48.408;10.004;2023-09-30T04:47:24;11.60;99.90
1179;DHT22;578;48.408;10.004;2023-09-30T04:49:26;11.60;99.90
1179;DHT22;578;48.408;10.004;2023-09-30T04:51:28;11.60;99.90
1179;DHT22;578;48.408;10.004;2023-09-30T04:53:31;11.60;99.90
1179;DHT22;578;48.408;10.004;2023-09-30T04:55:35;11.60;99.90
1179;DHT22;578;48.408;10.004;2023-09-30T04:57:38;11.60;99.90
1179;DHT22;578;48.408;10.004;2023-09-30T04:59:40;11.60;99.90
1179;DHT22;578;48.408;10.004;2023-09-30T05:01:43;11.60;99.90
1179;DHT22;578;48.408;10.004;2023-09-30T05:03:45;11.60;99.90
1179;DHT22;578;48.408;10.004;2023-09-30T05:05:50;11.60;99.90
1179;DHT22;578;48.408;10.004;2023-09-30T05:07:53;11.70;99.90
1179;DHT22;578;48.408;10.004;2023-09-30T05:09:55;11.70;99.90
1179;DHT22;578;48.408;10.004;2023-09-30T05:11:59;11.70;99.90
1179;DHT22;578;48.408;10.004;2023-09-30T05:14:01;11.70;99.90
1179;DHT22;578;48.408;10.004;2023-09-30T05:16:05;11.70;99.90
1179;DHT22;578;48.408;10.004;2023-09-30T05:18:08;11.70;99.90
1179;DHT22;578;48.408;10.004;2023-09-30T05:20:09;11.70;99.90
1179;DHT22;578;48.408;10.004;2023-09-30T05:22:12;11.70;99.90
1179;DHT22;578;48.408;10.004;2023-09-30T05:24:16;11.80;99.90
1179;DHT22;578;48.408;10.004;2023-09-30T05:26:19;11.80;99.90
1179;DHT22;578;48.408;10.004;2023-09-30T05:28:23;11.80;99.90
1179;DHT22;578;48.408;10.004;2023-09-30T05:30:25;11.90;99.90
1179;DHT22;578;48.408;10.004;2023-09-30T05:32:27;11.90;99.90
1179;DHT22;578;48.408;10.004;2023-09-30T05:34:28;11.90;99.90
1179;DHT22;578;48.408;10.004;2023-09-30T05:36:30;12.00;99.90
1179;DHT22;578;48.408;10.004;2023-09-30T05:38:32;12.10;99.90
1179;DHT22;578;48.408;10.004;2023-09-30T05:40:34;12.20;99.90
1179;DHT22;578;48.408;10.004;2023-09-30T05:42:36;12.30;99.90
1179;DHT22;578;48.408;10.004;2023-09-30T05:44:40;12.40;99.90
1179;DHT22;578;48.408;10.004;2023-09-30T05:46:42;12.40;99.90
1179;DHT22;578;48.408;10.004;2023-09-30T05:48:44;12.40;99.90
1179;DHT22;578;48.408;10.004;2023-09-30T05:50:46;12.50;99.90
1179;DHT22;578;48.408;10.004;2023-09-30T05:52:47;12.50;99.90
1179;DHT22;578;48.408;10.004;2023-09-30T05:54:50;12.60;99.90
1179;DHT22;578;48.408;10.004;2023-09-30T05:56:53;12.70;99.90
1179;DHT22;578;48.408;10.004;2023-09-30T05:58:54;12.70;99.90
1179;DHT22;578;48.408;10.004;2023-09-30T06:00:57;12.80;99.90
1179;DHT22;578;48.408;10.004;2023-09-30T06:03:01;12.80;99.90
1179;DHT22;578;48.408;10.004;2023-09-30T06:05:05;12.90;99.90
1179;DHT22;578;48.408;10.004;2023-09-30T06:07:08;13.00;99.90
1179;DHT22;578;48.408;10.004;2023-09-30T06:09:10;13.00;99.90
1179;DHT22;578;48.408;10.004;2023-09-30T06:11:16;13.10;99.90
1179;DHT22;578;48.408;10.004;2023-09-30T06:13:18;13.20;99.90
1179;DHT22;578;48.408;10.004;2023-09-30T06:15:22;13.30;99.90
1179;DHT22;578;48.408;10.004;2023-09-30T06:17:27;13.30;99.90
1179;DHT22;578;48.408;10.004;2023-09-30T06:19:29;13.40;99.90
1179;DHT22;578;48.408;10.004;2023-09-30T06:21:30;13.40;99.90
1179;DHT22;578;48.408;10.004;2023-09-30T06:23:35;13.50;99.90
1179;DHT22;578;48.408;10.004;2023-09-30T06:25:37;13.60;99.90
1179;DHT22;578;48.408;10.004;2023-09-30T06:27:40;13.60;99.90
1179;DHT22;578;48.408;10.004;2023-09-30T06:29:42;13.70;99.90
1179;DHT22;578;48.408;10.004;2023-09-30T06:31:44;13.90;99.90
1179;DHT22;578;48.408;10.004;2023-09-30T06:33:47;13.90;99.90
1179;DHT22;578;48.408;10.004;2023-09-30T06:35:49;13.90;99.90
1179;DHT22;578;48.408;10.004;2023-09-30T06:37:51;14.00;99.90
1179;DHT22;578;48.408;10.004;2023-09-30T06:39:53;14.10;99.90
1179;DHT22;578;48.408;10.004;2023-09-30T06:41:56;14.10;99.90
1179;DHT22;578;48.408;10.004;2023-09-30T06:43:57;14.10;99.90
1179;DHT22;578;48.408;10.004;2023-09-30T06:45:59;14.20;99.90
1179;DHT22;578;48.408;10.004;2023-09-30T06:48:08;14.30;99.90
1179;DHT22;578;48.408;10.004;2023-09-30T06:50:14;14.50;99.90
1179;DHT22;578;48.408;10.004;2023-09-30T06:52:17;14.60;99.90
1179;DHT22;578;48.408;10.004;2023-09-30T06:54:18;14.70;99.90
1179;DHT22;578;48.408;10.004;2023-09-30T06:56:20;14.80;99.90
1179;DHT22;578;48.408;10.004;2023-09-30T06:58:21;14.80;99.90
1179;DHT22;578;48.408;10.004;2023-09-30T07:00:22;14.80;99.90
1179;DHT22;578;48.408;10.004;2023-09-30T07:02:26;14.70;99.90
1179;DHT22;578;48.408;10.004;2023-09-30T07:04:26;14.70;99.90
1179;DHT22;578;48.408;10.004;2023-09-30T07:06:29;14.80;99.90
1179;DHT22;578;48.408;10.004;2023-09-30T07:08:31;14.80;99.90
1179;DHT22;578;48.408;10.004;2023-09-30T07:10:33;14.80;99.90
1179;DHT22;578;48.408;10.004;2023-09-30T07:12:35;14.90;99.90
1179;DHT22;578;48.408;10.004;2023-09-30T07:14:37;15.00;99.90
1179;DHT22;578;48.408;10.004;2023-09-30T07:16:39;15.00;99.90
1179;DHT22;578;48.408;10.004;2023-09-30T07:18:41;15.10;99.90
1179;DHT22;578;48.408;10.004;2023-09-30T07:20:42;15.30;99.90
1179;DHT22;578;48.408;10.004;2023-09-30T07:22:46;15.40;99.90
1179;DHT22;578;48.408;10.004;2023-09-30T07:24:48;15.50;99.90
1179;DHT22;578;48.408;10.004;2023-09-30T07:26:49;15.50;99.90
1179;DHT22;578;48.408;10.004;2023-09-30T07:28:50;15.50;99.90
1179;DHT22;578;48.408;10.004;2023-09-30T07:30:55;15.50;99.90
1179;DHT22;578;48.408;10.004;2023-09-30T07:32:57;15.50;99.90
1179;DHT22;578;48.408;10.004;2023-09-30T07:34:58;15.40;99.90
1179;DHT22;578;48.408;10.004;2023-09-30T07:37:00;15.50;99.90
1179;DHT22;578;48.408;10.004;2023-09-30T07:39:04;15.50;99.90
1179;DHT22;578;48.408;10.004;2023-09-30T07:41:06;15.50;99.90
1179;DHT22;578;48.408;10.004;2023-09-30T07:43:10;15.60;99.90
1179;DHT22;578;48.408;10.004;2023-09-30T07:45:13;15.50;99.90
1179;DHT22;578;48.408;10.004;2023-09-30T07:47:17;15.60;99.90
1179;DHT22;578;48.408;10.004;2023-09-30T07:49:19;15.60;99.90
1179;DHT22;578;48.408;10.004;2023-09-30T07:51:21;15.70;99.90
1179;DHT22;578;48.408;10.004;2023-09-30T07:53:23;15.70;99.90
1179;DHT22;578;48.408;10.004;2023-09-30T07:55:26;15.80;99.90
1179;DHT22;578;48.408;10.004;2023-09-30T07:57:28;15.90;99.90
1179;DHT22;578;48.408;10.004;2023-09-30T07:59:30;16.00;99.90
1179;DHT22;578;48.408;10.004;2023-09-30T08:01:33;16.00;99.90
1179;DHT22;578;48.408;10.004;2023-09-30T08:03:35;16.00;99.90
1179;DHT22;578;48.408;10.004;2023-09-30T08:05:37;16.10;99.90
1179;DHT22;578;48.408;10.004;2023-09-30T08:07:39;16.30;99.90
1179;DHT22;578;48.408;10.004;2023-09-30T08:09:40;16.40;99.90
1179;DHT22;578;48.408;10.004;2023-09-30T08:11:43;16.70;99.90
1179;DHT22;578;48.408;10.004;2023-09-30T08:13:45;17.00;99.90
1179;DHT22;578;48.408;10.004;2023-09-30T08:15:47;17.40;99.90
1179;DHT22;578;48.408;10.004;2023-09-30T08:17:48;17.50;99.90
1179;DHT22;578;48.408;10.004;2023-09-30T08:19:50;17.70;99.90
1179;DHT22;578;48.408;10.004;2023-09-30T08:21:52;18.00;99.90
1179;DHT22;578;48.408;10.004;2023-09-30T08:23:54;18.00;99.90
1179;DHT22;578;48.408;10.004;2023-09-30T08:25:58;18.30;99.90
1179;DHT22;578;48.408;10.004;2023-09-30T08:28:01;18.20;99.90
1179;DHT22;578;48.408;10.004;2023-09-30T08:30:03;18.00;99.90
1179;DHT22;578;48.408;10.004;2023-09-30T08:32:05;18.30;99.90
1179;DHT22;578;48.408;10.004;2023-09-30T08:34:07;17.80;99.90
1179;DHT22;578;48.408;10.004;2023-09-30T08:36:09;17.70;99.90
1179;DHT22;578;48.408;10.004;2023-09-30T08:38:11;18.00;99.90
1179;DHT22;578;48.408;10.004;2023-09-30T08:40:13;18.10;99.90
1179;DHT22;578;48.408;10.004;2023-09-30T08:42:15;18.30;99.90
1179;DHT22;578;48.408;10.004;2023-09-30T08:44:20;18.40;99.90
1179;DHT22;578;48.408;10.004;2023-09-30T08:46:24;18.50;99.90
1179;DHT22;578;48.408;10.004;2023-09-30T08:48:26;17.70;99.90
1179;DHT22;578;48.408;10.004;2023-09-30T08:50:28;17.80;99.90
1179;DHT22;578;48.408;10.004;2023-09-30T08:52:30;17.70;99.90
1179;DHT22;578;48.408;10.004;2023-09-30T08:54:32;17.80;99.90
1179;DHT22;578;48.408;10.004;2023-09-30T08:56:34;18.10;99.90
1179;DHT22;578;48.408;10.004;2023-09-30T08:58:36;17.50;99.90
1179;DHT22;578;48.408;10.004;2023-09-30T09:00:40;17.00;99.90
1179;DHT22;578;48.408;10.004;2023-09-30T09:02:41;17.10;99.90
1179;DHT22;578;48.408;10.004;2023-09-30T09:04:44;17.50;99.90
1179;DHT22;578;48.408;10.004;2023-09-30T09:06:46;17.80;99.90
1179;DHT22;578;48.408;10.004;2023-09-30T09:08:48;18.00;99.90
1179;DHT22;578;48.408;10.004;2023-09-30T09:10:55;18.00;99.90
1179;DHT22;578;48.408;10.004;2023-09-30T09:12:58;18.00;99.90
1179;DHT22;578;48.408;10.004;2023-09-30T09:15:01;18.00;99.90
1179;DHT22;578;48.408;10.004;2023-09-30T09:17:06;18.00;99.90
1179;DHT22;578;48.408;10.004;2023-09-30T09:19:15;18.10;99.90
1179;DHT22;578;48.408;10.004;2023-09-30T09:21:18;18.20;99.90
1179;DHT22;578;48.408;10.004;2023-09-30T09:23:21;18.40;99.90
1179;DHT22;578;48.408;10.004;2023-09-30T09:25:23;17.90;99.90
1179;DHT22;578;48.408;10.004;2023-09-30T09:27:25;18.50;99.90
1179;DHT22;578;48.408;10.004;2023-09-30T09:29:27;17.60;99.90
1179;DHT22;578;48.408;10.004;2023-09-30T09:31:30;17.40;99.90
1179;DHT22;578;48.408;10.004;2023-09-30T09:33:36;17.90;99.90
1179;DHT22;578;48.408;10.004;2023-09-30T09:35:38;18.40;99.90
1179;DHT22;578;48.408;10.004;2023-09-30T09:37:40;18.90;99.90
1179;DHT22;578;48.408;10.004;2023-09-30T09:39:51;18.90;99.90
1179;DHT22;578;48.408;10.004;2023-09-30T09:41:54;19.40;99.90
1179;DHT22;578;48.408;10.004;2023-09-30T09:43:59;19.50;99.90
1179;DHT22;578;48.408;10.004;2023-09-30T09:46:01;19.90;99.90
1179;DHT22;578;48.408;10.004;2023-09-30T09:48:05;20.20;99.90
1179;DHT22;578;48.408;10.004;2023-09-30T09:50:10;20.00;97.60
1179;DHT22;578;48.408;10.004;2023-09-30T09:52:12;19.60;99.30
1179;DHT22;578;48.408;10.004;2023-09-30T09:54:16;19.70;98.30
1179;DHT22;578;48.408;10.004;2023-09-30T09:56:19;19.50;98.90
1179;DHT22;578;48.408;10.004;2023-09-30T09:58:22;19.50;99.90
1179;DHT22;578;48.408;10.004;2023-09-30T10:00:25;19.30;98.70
1179;DHT22;578;48.408;10.004;2023-09-30T10:02:28;19.40;99.90
1179;DHT22;578;48.408;10.004;2023-09-30T10:04:31;19.40;99.00
1179;DHT22;578;48.408;10.004;2023-09-30T10:06:34;19.10;97.00
1179;DHT22;578;48.408;10.004;2023-09-30T10:08:42;18.90;99.90
1179;DHT22;578;48.408;10.004;2023-09-30T10:10:45;19.10;99.90
1179;DHT22;578;48.408;10.004;2023-09-30T10:12:47;19.20;99.90
1179;DHT22;578;48.408;10.004;2023-09-30T10:14:49;19.50;99.80
1179;DHT22;578;48.408;10.004;2023-09-30T10:16:50;19.60;99.90
1179;DHT22;578;48.408;10.004;2023-09-30T10:19:07;19.60;96.40
1179;DHT22;578;48.408;10.004;2023-09-30T10:21:09;19.50;97.30
1179;DHT22;578;48.408;10.004;2023-09-30T10:23:26;19.70;98.20
1179;DHT22;578;48.408;10.004;2023-09-30T10:25:34;19.80;96.70
1179;DHT22;578;48.408;10.004;2023-09-30T10:27:37;19.60;96.20
1179;DHT22;578;48.408;10.004;2023-09-30T10:29:39;19.80;95.50
1179;DHT22;578;48.408;10.004;2023-09-30T10:31:49;20.00;95.40
1179;DHT22;578;48.408;10.004;2023-09-30T10:34:19;20.10;93.70
1179;DHT22;578;48.408;10.004;2023-09-30T10:36:26;20.20;93.00
1179;DHT22;578;48.408;10.004;2023-09-30T10:38:39;20.30;91.40
1179;DHT22;578;48.408;10.004;2023-09-30T10:40:41;20.30;89.60
1179;DHT22;578;48.408;10.004;2023-09-30T10:42:47;20.50;90.10
1179;DHT22;578;48.408;10.004;2023-09-30T10:44:50;20.20;86.10
1179;DHT22;578;48.408;10.004;2023-09-30T10:46:52;19.40;90.30
1179;DHT22;578;48.408;10.004;2023-09-30T10:48:54;19.70;92.90
1179;DHT22;578;48.408;10.004;2023-09-30T10:50:56;20.00;89.90
1179;DHT22;578;48.408;10.004;2023-09-30T10:53:03;19.80;87.80
1179;DHT22;578;48.408;10.004;2023-09-30T10:55:07;19.90;89.30
1179;DHT22;578;48.408;10.004;2023-09-30T10:57:10;19.70;87.10
1179;DHT22;578;48.408;10.004;2023-09-30T10:59:18;19.70;91.30
1179;DHT22;578;48.408;10.004;2023-09-30T11:01:21;19.60;92.40
1179;DHT22;578;48.408;10.004;2023-09-30T11:03:23;19.50;93.60
1179;DHT22;578;48.408;10.004;2023-09-30T11:05:24;19.50;92.70
1179;DHT22;578;48.408;10.004;2023-09-30T11:07:26;19.50;91.90
1179;DHT22;578;48.408;10.004;2023-09-30T11:09:28;19.40;95.20
1179;DHT22;578;48.408;10.004;2023-09-30T11:11:39;19.40;93.50
1179;DHT22;578;48.408;10.004;2023-09-30T11:13:43;19.50;92.10
1179;DHT22;578;48.408;10.004;2023-09-30T11:15:44;19.40;91.90
1179;DHT22;578;48.408;10.004;2023-09-30T11:17:46;19.30;89.60
1179;DHT22;578;48.408;10.004;2023-09-30T11:19:48;19.20;90.70
1179;DHT22;578;48.408;10.004;2023-09-30T11:21:51;19.60;90.70
1179;DHT22;578;48.408;10.004;2023-09-30T11:23:53;20.00;90.30
1179;DHT22;578;48.408;10.004;2023-09-30T11:25:54;20.20;85.30
1179;DHT22;578;48.408;10.004;2023-09-30T11:28:15;19.60;88.90
1179;DHT22;578;48.408;10.004;2023-09-30T11:30:17;19.80;91.10
1179;DHT22;578;48.408;10.004;2023-09-30T11:32:25;20.10;89.50
1179;DHT22;578;48.408;10.004;2023-09-30T11:34:34;20.40;88.70
1179;DHT22;578;48.408;10.004;2023-09-30T11:36:38;20.40;84.10
1179;DHT22;578;48.408;10.004;2023-09-30T11:38:44;20.30;86.40
1179;DHT22;578;48.408;10.004;2023-09-30T11:40:58;20.20;83.90
1179;DHT22;578;48.408;10.004;2023-09-30T11:43:09;20.10;83.70
1179;DHT22;578;48.408;10.004;2023-09-30T11:45:20;20.10;78.90
1179;DHT22;578;48.408;10.004;2023-09-30T11:47:28;20.00;81.30
1179;DHT22;578;48.408;10.004;2023-09-30T11:49:33;20.20;75.80
1179;DHT22;578;48.408;10.004;2023-09-30T11:51:43;20.30;77.50
1179;DHT22;578;48.408;10.004;2023-09-30T11:53:44;20.40;81.60
1179;DHT22;578;48.408;10.004;2023-09-30T11:55:47;20.50;84.60
1179;DHT22;578;48.408;10.004;2023-09-30T11:57:49;20.30;86.80
1179;DHT22;578;48.408;10.004;2023-09-30T11:59:55;20.50;81.70
1179;DHT22;578;48.408;10.004;2023-09-30T12:01:58;20.70;80.60
1179;DHT22;578;48.408;10.004;2023-09-30T12:03:59;20.30;78.50
1179;DHT22;578;48.408;10.004;2023-09-30T12:06:01;20.10;81.80
1179;DHT22;578;48.408;10.004;2023-09-30T12:08:04;19.80;84.00
1179;DHT22;578;48.408;10.004;2023-09-30T12:10:07;19.50;84.20
1179;DHT22;578;48.408;10.004;2023-09-30T12:12:10;19.50;90.30
1179;DHT22;578;48.408;10.004;2023-09-30T12:14:14;19.70;92.60
1179;DHT22;578;48.408;10.004;2023-09-30T12:16:17;19.60;91.60
1179;DHT22;578;48.408;10.004;2023-09-30T12:18:20;19.70;90.40
1179;DHT22;578;48.408;10.004;2023-09-30T12:20:24;19.40;92.50
1179;DHT22;578;48.408;10.004;2023-09-30T12:22:25;19.10;94.20
1179;DHT22;578;48.408;10.004;2023-09-30T12:24:28;19.20;95.70
1179;DHT22;578;48.408;10.004;2023-09-30T12:26:30;19.40;96.90
1179;DHT22;578;48.408;10.004;2023-09-30T12:28:32;19.60;95.40
1179;DHT22;578;48.408;10.004;2023-09-30T12:30:33;20.00;92.50
1179;DHT22;578;48.408;10.004;2023-09-30T12:32:35;20.20;89.90
1179;DHT22;578;48.408;10.004;2023-09-30T12:34:37;20.60;89.30
1179;DHT22;578;48.408;10.004;2023-09-30T12:36:39;20.90;83.20
1179;DHT22;578;48.408;10.004;2023-09-30T12:38:41;20.90;84.10
1179;DHT22;578;48.408;10.004;2023-09-30T12:40:43;20.80;78.10
1179;DHT22;578;48.408;10.004;2023-09-30T12:42:45;20.80;71.60
1179;DHT22;578;48.408;10.004;2023-09-30T12:44:47;20.40;76.80
1179;DHT22;578;48.408;10.004;2023-09-30T12:46:49;20.30;76.80
1179;DHT22;578;48.408;10.004;2023-09-30T12:48:51;20.30;87.20
1179;DHT22;578;48.408;10.004;2023-09-30T12:50:54;20.30;81.10
1179;DHT22;578;48.408;10.004;2023-09-30T12:52:56;20.30;81.60
1179;DHT22;578;48.408;10.004;2023-09-30T12:54:58;20.60;81.20
1179;DHT22;578;48.408;10.004;2023-09-30T12:57:00;20.60;71.20
1179;DHT22;578;48.408;10.004;2023-09-30T12:59:02;20.10;73.10
1179;DHT22;578;48.408;10.004;2023-09-30T13:01:04;20.40;83.10
1179;DHT22;578;48.408;10.004;2023-09-30T13:03:06;20.60;80.30
1179;DHT22;578;48.408;10.004;2023-09-30T13:05:08;20.50;73.70
1179;DHT22;578;48.408;10.004;2023-09-30T13:07:12;20.60;76.70
1179;DHT22;578;48.408;10.004;2023-09-30T13:09:14;20.40;73.00
1179;DHT22;578;48.408;10.004;2023-09-30T13:11:16;20.50;71.40
1179;DHT22;578;48.408;10.004;2023-09-30T13:13:18;20.40;84.50
1179;DHT22;578;48.408;10.004;2023-09-30T13:15:20;20.20;82.50
1179;DHT22;578;48.408;10.004;2023-09-30T13:17:22;20.20;77.50
1179;DHT22;578;48.408;10.004;2023-09-30T13:19:24;20.00;82.90
1179;DHT22;578;48.408;10.004;2023-09-30T13:21:26;20.10;82.30
1179;DHT22;578;48.408;10.004;2023-09-30T13:23:29;19.90;83.90